createdAt,value
2022-11-29T00:01:40.613Z,100087.06
2022-11-29T00:04:07.856Z,100087.19
2022-11-29T00:06:36.186Z,100085.63
2022-11-29T00:09:11.804Z,100078.53
2022-11-29T00:11:58.992Z,100074.69
2022-11-29T00:14:27.575Z,100074.91
2022-11-29T00:17:01.877Z,100074.47
2022-11-29T00:19:31.346Z,100073.03
2022-11-29T00:21:59.723Z,100073.94
2022-11-29T00:24:28.712Z,100074.47
2022-11-29T00:26:55.954Z,100072.78
2022-11-29T00:29:23.176Z,100068.94
2022-11-29T00:31:50.342Z,100072.88
2022-11-29T00:34:17.471Z,100063.28
2022-11-29T00:36:44.644Z,100065.31
2022-11-29T00:39:12.467Z,100066.22
2022-11-29T00:41:40.353Z,100065.75
2022-11-29T00:44:08.496Z,100057.13
2022-11-29T00:46:35.972Z,100057.00
2022-11-29T00:49:03.713Z,100051.81
2022-11-29T00:51:30.940Z,100056.88
2022-11-29T00:53:58.184Z,100057.75
2022-11-29T00:56:25.659Z,100061.38
2022-11-29T00:58:52.979Z,100049.47
2022-11-29T01:01:20.342Z,100052.28
2022-11-29T01:03:48.004Z,100047.63
2022-11-29T01:06:17.839Z,100050.78
2022-11-29T01:08:45.850Z,100053.59
2022-11-29T01:11:25.778Z,100052.69
2022-11-29T01:14:00.239Z,100059.53
2022-11-29T01:16:30.560Z,100048.41
2022-11-29T01:18:57.946Z,100056.31
2022-11-29T01:21:25.426Z,100048.94
2022-11-29T01:23:54.397Z,100045.00
2022-11-29T01:26:26.880Z,100054.44
2022-11-29T01:28:57.285Z,100050.25
2022-11-29T01:31:33.270Z,100053.72
2022-11-29T01:34:04.490Z,100051.53
2022-11-29T01:36:32.351Z,100046.59
2022-11-29T01:39:05.658Z,100053.28
2022-11-29T01:41:37.072Z,100052.34
2022-11-29T01:44:28.427Z,100050.31
2022-11-29T01:46:57.344Z,100051.97
2022-11-29T01:49:48.686Z,100054.88
2022-11-29T01:52:28.646Z,100053.59
2022-11-29T01:55:04.504Z,100048.19
2022-11-29T01:57:34.917Z,100051.06
2022-11-29T02:00:11.424Z,100049.25
2022-11-29T02:03:14.845Z,100041.56
2022-11-29T02:05:53.369Z,100048.75
2022-11-29T02:08:37.686Z,100048.00
2022-11-29T02:11:56.440Z,100036.13
2022-11-29T02:14:51.397Z,100033.31
2022-11-29T02:18:06.648Z,100038.78
2022-11-29T02:21:31.621Z,100032.88
2022-11-29T02:24:48.105Z,100025.75
2022-11-29T02:27:53.693Z,100029.19
2022-11-29T02:30:55.848Z,100036.03
2022-11-29T02:34:44.084Z,100029.44
2022-11-29T02:38:17.252Z,100022.63
2022-11-29T02:41:36.971Z,100018.22
2022-11-29T02:44:41.741Z,100015.06
2022-11-29T02:47:24.249Z,100011.22
2022-11-29T02:50:46.748Z,100014.31
2022-11-29T02:53:52.492Z,100007.59
2022-11-29T02:56:37.141Z,100008.88
2022-11-29T02:59:42.998Z,100009.38
2022-11-29T03:03:00.146Z,99996.69
2022-11-29T03:06:35.960Z,100008.56
2022-11-29T03:09:36.840Z,100002.97
2022-11-29T03:12:30.901Z,100003.22
2022-11-29T03:15:22.698Z,100005.56
2022-11-29T03:18:51.512Z,100006.72
2022-11-29T03:21:34.541Z,100003.88
2022-11-29T03:24:11.991Z,100001.66
2022-11-29T03:26:49.931Z,100010.72
2022-11-29T03:29:47.823Z,100007.09
2022-11-29T03:32:51.003Z,100011.28
2022-11-29T03:35:59.036Z,100013.13
2022-11-29T03:38:43.828Z,100009.97
2022-11-29T03:42:07.710Z,100011.59
2022-11-29T03:45:05.975Z,100007.41
2022-11-29T03:47:51.583Z,100006.00
2022-11-29T03:50:33.348Z,100009.06
2022-11-29T03:53:34.119Z,100006.84
2022-11-29T03:56:23.104Z,100001.00
2022-11-29T03:59:27.007Z,100003.19
2022-11-29T04:02:28.738Z,100011.34
2022-11-29T04:05:29.789Z,100009.38
2022-11-29T04:08:28.044Z,100008.25
2022-11-29T04:12:12.927Z,100012.28
2022-11-29T04:14:51.209Z,100017.31
2022-11-29T04:18:07.236Z,100015.41
2022-11-29T04:20:49.301Z,100016.41
2022-11-29T04:23:41.164Z,100019.38
2022-11-29T04:27:20.509Z,100017.69
2022-11-29T04:30:18.313Z,100011.47
2022-11-29T04:33:30.925Z,100015.47
2022-11-29T04:37:03.707Z,100019.47
2022-11-29T04:39:49.171Z,100017.16
2022-11-29T04:42:37.249Z,100023.59
2022-11-29T04:45:36.464Z,100024.03
2022-11-29T04:48:56.496Z,100023.75
2022-11-29T04:51:51.711Z,100026.50
2022-11-29T04:54:57.238Z,100030.91
2022-11-29T04:57:47.582Z,100029.47
2022-11-29T05:00:24.930Z,100031.94
2022-11-29T05:03:06.507Z,100033.78
2022-11-29T05:06:23.825Z,100027.44
2022-11-29T05:09:03.861Z,100029.34
2022-11-29T05:12:05.535Z,100036.78
2022-11-29T05:15:43.435Z,100029.38
2022-11-29T05:18:56.603Z,100031.09
2022-11-29T05:22:19.867Z,100035.78
2022-11-29T05:25:27.812Z,100035.31
2022-11-29T05:28:10.693Z,100033.47
2022-11-29T05:31:26.888Z,100035.31
2022-11-29T05:34:34.748Z,100035.81
2022-11-29T05:37:49.023Z,100036.56
2022-11-29T05:41:06.818Z,100038.66
2022-11-29T05:44:16.928Z,100046.97
2022-11-29T05:47:04.754Z,100043.47
2022-11-29T05:49:53.717Z,100044.38
2022-11-29T05:52:50.125Z,100045.19
2022-11-29T05:55:55.083Z,100049.31
2022-11-29T05:59:11.920Z,100050.34
2022-11-29T06:02:29.488Z,100056.41
2022-11-29T06:06:07.065Z,100055.53
2022-11-29T06:08:48.843Z,100058.13
2022-11-29T06:11:33.832Z,100059.91
2022-11-29T06:14:53.469Z,100052.31
2022-11-29T06:18:08.693Z,100059.19
2022-11-29T06:20:47.621Z,100055.16
2022-11-29T06:24:27.392Z,100060.69
2022-11-29T06:27:50.516Z,100062.16
2022-11-29T06:30:26.709Z,100059.81
2022-11-29T06:33:28.907Z,100059.38
2022-11-29T06:36:23.413Z,100065.16
2022-11-29T06:38:50.990Z,100067.19
2022-11-29T06:41:24.465Z,100066.06
2022-11-29T06:43:52.196Z,100065.25
2022-11-29T06:46:47.364Z,100074.19
2022-11-29T06:49:55.852Z,100069.88
2022-11-29T06:52:51.737Z,100061.59
2022-11-29T06:55:54.926Z,100072.84
2022-11-29T06:59:04.391Z,100076.56
2022-11-29T07:02:42.724Z,100076.94
2022-11-29T07:05:40.780Z,100080.56
2022-11-29T07:08:26.572Z,100088.69
2022-11-29T07:10:55.599Z,100093.19
2022-11-29T07:13:23.558Z,100092.38
2022-11-29T07:16:55.826Z,100088.22
2022-11-29T07:19:51.559Z,100089.56
2022-11-29T07:22:55.136Z,100090.47
2022-11-29T07:26:10.711Z,100094.97
2022-11-29T07:29:08.019Z,100090.72
2022-11-29T07:31:48.293Z,100100.28
2022-11-29T07:35:17.466Z,100090.16
2022-11-29T07:38:09.972Z,100091.84
2022-11-29T07:41:27.791Z,100089.63
2022-11-29T07:44:31.187Z,100096.47
2022-11-29T07:46:58.411Z,100095.91
2022-11-29T07:49:25.672Z,100098.22
2022-11-29T07:51:55.118Z,100096.09
2022-11-29T07:54:23.072Z,100095.53
2022-11-29T07:56:50.306Z,100099.38
2022-11-29T07:59:17.557Z,100094.66
2022-11-29T08:01:44.801Z,100104.97
2022-11-29T08:04:12.057Z,100096.09
2022-11-29T08:06:39.490Z,100106.56
2022-11-29T08:09:07.744Z,100095.53
2022-11-29T08:11:35.055Z,100096.69
2022-11-29T08:14:05.032Z,100099.38
2022-11-29T08:16:32.928Z,100098.03
2022-11-29T08:19:00.677Z,100100.78
2022-11-29T08:21:28.191Z,100098.94
2022-11-29T08:23:55.436Z,100107.75
2022-11-29T08:26:25.610Z,100097.38
2022-11-29T08:28:55.708Z,100099.06
2022-11-29T08:31:22.922Z,100102.81
2022-11-29T08:33:50.162Z,100101.56
2022-11-29T08:36:20.158Z,100105.28
2022-11-29T08:38:48.258Z,100105.50
2022-11-29T08:41:17.765Z,100105.50
2022-11-29T08:43:45.196Z,100101.47
2022-11-29T08:46:18.248Z,100102.38
2022-11-29T08:48:47.538Z,100091.66
2022-11-29T08:51:15.320Z,100095.38
2022-11-29T08:53:42.723Z,100097.50
2022-11-29T08:57:04.448Z,100096.72
2022-11-29T08:59:06.210Z,100103.94
2022-11-29T09:01:33.520Z,100102.13
2022-11-29T09:04:03.001Z,100095.50
2022-11-29T09:06:40.615Z,100084.09
2022-11-29T09:09:08.315Z,100088.38
2022-11-29T09:11:36.636Z,100077.97
2022-11-29T09:14:07.733Z,100076.63
2022-11-29T09:16:38.321Z,100086.88
2022-11-29T09:19:06.641Z,100084.94
2022-11-29T09:21:36.719Z,100091.91
2022-11-29T09:24:06.655Z,100094.94
2022-11-29T09:26:37.850Z,100091.91
2022-11-29T09:29:06.755Z,100099.53
2022-11-29T09:31:35.133Z,100097.28
2022-11-29T09:34:02.512Z,100096.41
2022-11-29T09:36:31.515Z,100102.94
2022-11-29T09:39:02.726Z,100098.78
2022-11-29T09:42:07.798Z,100097.97
2022-11-29T09:44:46.724Z,100104.25
2022-11-29T09:47:36.056Z,100105.50
2022-11-29T09:50:35.688Z,100092.50
2022-11-29T09:53:48.996Z,100098.50
2022-11-29T09:56:33.177Z,100096.16
2022-11-29T09:59:22.716Z,100097.28
2022-11-29T10:02:48.107Z,100093.16
2022-11-29T10:05:44.111Z,100096.44
2022-11-29T10:08:36.896Z,100092.34
2022-11-29T10:11:35.136Z,100100.22
2022-11-29T10:14:16.586Z,100090.97
2022-11-29T10:17:03.952Z,100093.03
2022-11-29T10:19:47.547Z,100092.56
2022-11-29T10:22:54.471Z,100097.41
2022-11-29T10:25:51.509Z,100093.72
2022-11-29T10:28:32.441Z,100082.66
2022-11-29T10:31:25.251Z,100088.31
2022-11-29T10:33:54.944Z,100078.34
2022-11-29T10:36:47.589Z,100076.44
2022-11-29T10:39:44.566Z,100074.22
2022-11-29T10:42:40.851Z,100081.06
2022-11-29T10:45:38.822Z,100078.84
2022-11-29T10:48:19.951Z,100075.53
2022-11-29T10:50:51.235Z,100077.03
2022-11-29T10:53:30.606Z,100072.75
2022-11-29T10:56:07.645Z,100067.75
2022-11-29T10:58:35.803Z,100071.59
2022-11-29T11:01:07.070Z,100071.84
2022-11-29T11:04:07.436Z,100069.03
2022-11-29T11:06:57.629Z,100070.16
2022-11-29T11:09:48.852Z,100062.56
2022-11-29T11:12:16.075Z,100068.69
2022-11-29T11:14:45.229Z,100064.38
2022-11-29T11:17:33.870Z,100061.19
2022-11-29T11:20:08.682Z,100050.94
2022-11-29T11:22:39.837Z,100057.75
2022-11-29T11:25:31.428Z,100052.16
2022-11-29T11:28:25.098Z,100051.28
2022-11-29T11:31:08.404Z,100057.72
2022-11-29T11:33:44.988Z,100051.19
2022-11-29T11:36:24.523Z,100052.09
2022-11-29T11:39:17.765Z,100055.81
2022-11-29T11:42:05.467Z,100051.00
2022-11-29T11:44:52.472Z,100056.78
2022-11-29T11:47:26.151Z,100052.78
2022-11-29T11:50:06.674Z,100062.81
2022-11-29T11:52:53.832Z,100063.59
2022-11-29T11:55:43.513Z,100061.59
2022-11-29T11:58:13.701Z,100065.00
2022-11-29T12:01:05.690Z,100061.50
2022-11-29T12:04:17.992Z,100066.00
2022-11-29T12:07:10.031Z,100066.63
2022-11-29T12:09:55.771Z,100070.41
2022-11-29T12:12:37.095Z,100064.13
2022-11-29T12:15:38.115Z,100064.22
2022-11-29T12:18:42.477Z,100065.41
2022-11-29T12:21:23.728Z,100067.81
2022-11-29T12:24:34.526Z,100064.50
2022-11-29T12:27:05.626Z,100066.59
2022-11-29T12:29:35.119Z,100064.19
2022-11-29T12:32:33.808Z,100066.22
2022-11-29T12:35:52.965Z,100068.22
2022-11-29T12:38:49.948Z,100070.91
2022-11-29T12:41:47.257Z,100070.00
2022-11-29T12:44:55.909Z,100068.41
2022-11-29T12:47:55.624Z,100064.91
2022-11-29T12:50:58.708Z,100068.59
2022-11-29T12:53:51.883Z,100066.81
2022-11-29T12:56:36.948Z,100069.31
2022-11-29T13:00:03.675Z,100068.59
2022-11-29T13:03:21.632Z,100068.41
2022-11-29T13:05:57.488Z,100068.41
2022-11-29T13:08:55.965Z,100073.63
2022-11-29T13:11:32.137Z,100062.00
2022-11-29T13:14:43.186Z,100072.19
2022-11-29T13:17:41.211Z,100070.91
2022-11-29T13:20:36.092Z,100070.00
2022-11-29T13:24:07.234Z,100075.00
2022-11-29T13:26:27.828Z,100062.19
2022-11-29T13:28:56.233Z,100068.41
2022-11-29T13:31:25.569Z,100075.00
2022-11-29T13:34:13.293Z,100067.19
2022-11-29T13:37:20.545Z,100069.00
2022-11-29T13:40:38.101Z,100071.78
2022-11-29T13:43:35.360Z,100074.19
2022-11-29T13:46:36.447Z,100073.47
2022-11-29T13:49:03.818Z,100072.00
2022-11-29T13:51:41.099Z,100068.47
2022-11-29T13:54:33.596Z,100076.97
2022-11-29T13:57:09.685Z,100073.97
2022-11-29T13:59:44.293Z,100082.53
2022-11-29T14:02:31.168Z,100079.84
2022-11-29T14:04:58.946Z,100080.34
2022-11-29T14:07:26.213Z,100082.31
2022-11-29T14:10:07.083Z,100079.59
2022-11-29T14:12:50.731Z,100083.00
2022-11-29T14:15:33.560Z,100086.50
2022-11-29T14:18:08.216Z,100090.53
2022-11-29T14:20:45.103Z,100084.59
2022-11-29T14:23:34.772Z,100090.47
2022-11-29T14:26:01.798Z,100090.38
2022-11-29T14:28:39.745Z,100096.19
2022-11-29T14:31:10.702Z,100091.56
2022-11-29T14:33:47.039Z,100091.69
2022-11-29T14:36:54.693Z,100100.72
2022-11-29T14:39:46.954Z,100102.41
2022-11-29T14:42:20.920Z,100102.41
2022-11-29T14:45:00.657Z,100099.97
2022-11-29T14:47:38.855Z,100106.09
2022-11-29T14:50:10.361Z,100104.31
2022-11-29T14:52:51.465Z,100107.59
2022-11-29T14:55:21.242Z,100109.81
2022-11-29T14:57:48.377Z,100101.13
2022-11-29T15:00:32.402Z,100107.81
2022-11-29T15:03:37.795Z,100108.59
2022-11-29T15:06:14.130Z,100107.59
2022-11-29T15:09:03.957Z,100108.94
2022-11-29T15:11:48.021Z,100115.88
2022-11-29T15:15:19.665Z,100117.03
2022-11-29T15:18:24.664Z,100115.78
2022-11-29T15:21:43.568Z,100122.00
2022-11-29T15:24:15.833Z,100121.78
2022-11-29T15:27:12.841Z,100121.09
2022-11-29T15:29:39.977Z,100122.56
2022-11-29T15:32:12.831Z,100112.66
2022-11-29T15:34:50.367Z,100119.28
2022-11-29T15:37:36.475Z,100120.75
2022-11-29T15:40:17.159Z,100120.75
2022-11-29T15:43:19.306Z,100121.56
2022-11-29T15:45:51.411Z,100119.41
2022-11-29T15:48:29.105Z,100128.53
2022-11-29T15:51:20.797Z,100127.41
2022-11-29T15:54:43.444Z,100127.63
2022-11-29T15:57:30.121Z,100127.63
2022-11-29T16:00:02.241Z,100132.81
2022-11-29T16:02:38.091Z,100133.03
2022-11-29T16:05:30.914Z,100137.34
2022-11-29T16:08:05.298Z,100134.75
2022-11-29T16:10:43.612Z,100138.22
2022-11-29T16:13:35.789Z,100130.78
2022-11-29T16:16:15.500Z,100134.41
2022-11-29T16:18:46.626Z,100140.50
2022-11-29T16:21:32.114Z,100140.28
2022-11-29T16:24:18.488Z,100142.31
2022-11-29T16:26:47.212Z,100146.47
2022-11-29T16:29:34.851Z,100145.69
2022-11-29T16:32:28.601Z,100147.25
2022-11-29T16:35:06.029Z,100148.28
2022-11-29T16:37:44.060Z,100145.47
2022-11-29T16:40:26.323Z,100147.50
2022-11-29T16:43:24.073Z,100150.88
2022-11-29T16:46:20.171Z,100157.06
2022-11-29T16:48:57.274Z,100149.75
2022-11-29T16:51:38.648Z,100158.97
2022-11-29T16:54:31.689Z,100157.28
2022-11-29T16:56:58.920Z,100161.56
2022-11-29T16:59:28.401Z,100158.09
2022-11-29T17:01:56.922Z,100155.16
2022-11-29T17:04:25.651Z,100162.72
2022-11-29T17:06:57.423Z,100166.63
2022-11-29T17:09:32.450Z,100167.44
2022-11-29T17:12:01.480Z,100168.31
2022-11-29T17:14:29.592Z,100176.53
2022-11-29T17:16:57.575Z,100165.25
2022-11-29T17:19:24.940Z,100171.81
2022-11-29T17:21:52.978Z,100172.47
2022-11-29T17:24:22.865Z,100174.81
2022-11-29T17:26:51.188Z,100174.50
2022-11-29T17:29:19.001Z,100175.28
2022-11-29T17:31:46.984Z,100174.28
2022-11-29T17:34:14.301Z,100174.81
2022-11-29T17:36:41.892Z,100179.88
2022-11-29T17:39:09.353Z,100178.66
2022-11-29T17:41:36.889Z,100174.69
2022-11-29T17:44:04.776Z,100180.41
2022-11-29T17:46:36.330Z,100186.94
2022-11-29T17:49:08.476Z,100185.91
2022-11-29T17:51:54.224Z,100181.75
2022-11-29T17:54:22.973Z,100184.81
2022-11-29T17:56:51.456Z,100190.78
2022-11-29T17:59:18.954Z,100186.69
2022-11-29T18:01:49.328Z,100192.66
2022-11-29T18:04:16.822Z,100198.50
2022-11-29T18:06:49.395Z,100195.16
2022-11-29T18:09:17.830Z,100194.59
2022-11-29T18:11:49.346Z,100194.69
2022-11-29T18:14:28.220Z,100192.34
2022-11-29T18:16:55.804Z,100201.03
2022-11-29T18:19:23.398Z,100201.91
2022-11-29T18:21:50.947Z,100193.16
2022-11-29T18:24:18.843Z,100198.97
2022-11-29T18:26:46.872Z,100192.00
2022-11-29T18:29:14.350Z,100192.66
2022-11-29T18:31:45.891Z,100205.28
2022-11-29T18:34:14.775Z,100201.66
2022-11-29T18:36:48.620Z,100192.84
2022-11-29T18:39:19.740Z,100197.53
2022-11-29T18:41:49.988Z,100198.47
2022-11-29T18:44:21.523Z,100205.19
2022-11-29T18:46:48.864Z,100202.38
2022-11-29T18:49:18.203Z,100204.22
2022-11-29T18:51:46.829Z,100208.69
2022-11-29T18:54:17.152Z,100205.47
2022-11-29T18:56:45.998Z,100218.72
2022-11-29T18:59:17.356Z,100205.41
2022-11-29T19:01:47.905Z,100216.44
2022-11-29T19:04:21.072Z,100222.81
2022-11-29T19:06:49.315Z,100219.47
2022-11-29T19:09:21.286Z,100226.19
2022-11-29T19:11:49.719Z,100230.25
2022-11-29T19:14:17.820Z,100228.16
2022-11-29T19:16:48.371Z,100232.03
2022-11-29T19:19:15.620Z,100237.03
2022-11-29T19:21:42.805Z,100239.94
2022-11-29T19:24:15.587Z,100240.97
2022-11-29T19:26:46.280Z,100234.66
2022-11-29T19:29:15.123Z,100236.88
2022-11-29T19:31:43.192Z,100237.00
2022-11-29T19:34:10.907Z,100235.28
2022-11-29T19:36:43.853Z,100236.88
2022-11-29T19:39:17.463Z,100233.72
2022-11-29T19:41:47.787Z,100238.13
2022-11-29T19:44:15.424Z,100232.31
2022-11-29T19:46:48.396Z,100233.22
2022-11-29T19:49:16.338Z,100241.47
2022-11-29T19:51:43.585Z,100233.97
2022-11-29T19:54:12.377Z,100232.94
2022-11-29T19:56:39.852Z,100234.25
2022-11-29T19:59:08.846Z,100235.66
2022-11-29T20:01:41.314Z,100233.22
2022-11-29T20:04:11.154Z,100235.53
2022-11-29T20:06:40.269Z,100242.56
2022-11-29T20:09:07.805Z,100237.63
2022-11-29T20:11:35.597Z,100244.59
2022-11-29T20:14:06.090Z,100235.78
2022-11-29T20:16:33.841Z,100241.88
2022-11-29T20:19:02.180Z,100241.09
2022-11-29T20:21:32.833Z,100231.94
2022-11-29T20:24:07.593Z,100236.88
2022-11-29T20:26:38.429Z,100243.59
2022-11-29T20:29:08.294Z,100247.59
2022-11-29T20:31:43.066Z,100241.78
2022-11-29T20:34:14.824Z,100248.41
2022-11-29T20:37:02.089Z,100243.88
2022-11-29T20:40:03.909Z,100244.53
2022-11-29T20:43:02.804Z,100248.03
2022-11-29T20:45:30.412Z,100249.72
2022-11-29T20:48:17.698Z,100247.78
2022-11-29T20:50:59.780Z,100253.06
2022-11-29T20:53:40.564Z,100252.19
2022-11-29T20:56:10.748Z,100250.34
2022-11-29T20:58:38.910Z,100251.66
2022-11-29T21:01:07.410Z,100249.47
2022-11-29T21:03:35.062Z,100245.31
2022-11-29T21:06:05.528Z,100240.28
2022-11-29T21:08:33.945Z,100241.78
2022-11-29T21:11:10.133Z,100245.81
2022-11-29T21:13:38.521Z,100246.97
2022-11-29T21:16:06.806Z,100231.94
2022-11-29T21:18:34.698Z,100235.78
2022-11-29T21:21:26.976Z,100233.72
2022-11-29T21:24:28.679Z,100230.75
2022-11-29T21:26:56.175Z,100235.91
2022-11-29T21:29:24.308Z,100229.81
2022-11-29T21:31:54.164Z,100231.38
2022-11-29T21:34:22.320Z,100231.13
2022-11-29T21:36:58.994Z,100237.34
2022-11-29T21:39:33.383Z,100228.16
2022-11-29T21:42:00.808Z,100230.91
2022-11-29T21:44:27.968Z,100226.78
2022-11-29T21:46:55.443Z,100232.91
2022-11-29T21:49:22.694Z,100235.22
2022-11-29T21:51:49.981Z,100236.41
2022-11-29T21:54:17.271Z,100226.34
2022-11-29T21:56:44.433Z,100233.84
2022-11-29T21:59:11.596Z,100232.00
2022-11-29T22:01:38.976Z,100229.16
2022-11-29T22:04:06.236Z,100235.88
2022-11-29T22:06:33.541Z,100232.00
2022-11-29T22:09:01.061Z,100231.50
2022-11-29T22:11:31.353Z,100227.63
2022-11-29T22:14:19.855Z,100230.22
2022-11-29T22:16:56.037Z,100222.72
2022-11-29T22:19:28.560Z,100223.63
2022-11-29T22:22:00.381Z,100232.31
2022-11-29T22:24:32.057Z,100226.09
2022-11-29T22:26:59.669Z,100235.25
2022-11-29T22:29:27.268Z,100233.31
2022-11-29T22:31:56.593Z,100225.03
2022-11-29T22:34:26.636Z,100231.38
2022-11-29T22:36:54.616Z,100240.31
2022-11-29T22:39:23.924Z,100233.03
2022-11-29T22:41:54.591Z,100236.81
2022-11-29T22:44:25.865Z,100232.28
2022-11-29T22:46:53.227Z,100241.72
2022-11-29T22:49:20.727Z,100237.09
2022-11-29T22:51:48.212Z,100229.19
2022-11-29T22:54:16.334Z,100236.56
2022-11-29T22:56:44.978Z,100233.44
2022-11-29T22:59:12.919Z,100231.00
2022-11-29T23:01:41.942Z,100238.34
2022-11-29T23:04:12.057Z,100228.16
2022-11-29T23:06:45.588Z,100233.28
2022-11-29T23:09:22.196Z,100232.38
2022-11-29T23:11:53.890Z,100233.50
2022-11-29T23:14:22.708Z,100223.69
2022-11-29T23:16:50.293Z,100226.28
2022-11-29T23:19:17.851Z,100221.16
2022-11-29T23:21:46.155Z,100219.44
2022-11-29T23:24:15.307Z,100221.09
2022-11-29T23:26:46.758Z,100219.19
2022-11-29T23:29:18.425Z,100219.31
2022-11-29T23:31:47.027Z,100215.69
2022-11-29T23:34:14.720Z,100218.00
2022-11-29T23:36:41.958Z,100216.47
2022-11-29T23:39:09.304Z,100214.00
2022-11-29T23:41:37.019Z,100217.13
2022-11-29T23:44:06.204Z,100212.56
2022-11-29T23:46:35.165Z,100206.69
2022-11-29T23:49:02.616Z,100207.94
2022-11-29T23:51:29.907Z,100209.63
2022-11-29T23:53:57.051Z,100197.38
2022-11-29T23:56:24.185Z,100195.84
2022-11-29T23:58:51.417Z,100194.00
